Time;durP1;ratioP1;P1;durP2;ratioP2;P2;SDS_P1;SDS_P2;PMS_P1;PMS_P2;Temp;Humidity;BMP_temperature;BMP_pressure;BME280_temperature;BME280_humidity;BME280_pressure;Samples;Min_cycle;Max_cycle;Signal;HPM_P1;HPM_P2
2021/08/16 00:02:09;;;;;;;6.20;3.80;;;;;;;;;;4980603;28;20034;-72
2021/08/16 00:04:35;;;;;;;7.38;3.78;;;;;;;;;;4978387;28;20086;-72
2021/08/16 00:07:01;;;;;;;9.32;3.78;;;;;;;;;;4973395;28;20418;-71
2021/08/16 00:09:27;;;;;;;8.98;4.47;;;;;;;;;;4972842;28;20108;-72
2021/08/16 00:11:53;;;;;;;7.72;4.00;;;;;;;;;;4977314;28;20027;-72
2021/08/16 00:14:19;;;;;;;5.22;3.88;;;;;;;;;;4982089;28;20034;-72
2021/08/16 00:16:45;;;;;;;10.63;3.97;;;;;;;;;;4975372;28;20177;-72
2021/08/16 00:19:11;;;;;;;7.38;3.63;;;;;;;;;;4978778;28;20038;-72
2021/08/16 00:21:37;;;;;;;4.82;3.25;;;;;;;;;;4983685;28;20035;-72
2021/08/16 00:24:03;;;;;;;7.55;3.78;;;;;;;;;;4989370;28;20050;-71
2021/08/16 00:26:31;;;;;;;5.93;3.40;;;;;;;;;;4979755;28;20031;-72
2021/08/16 00:28:59;;;;;;;4.82;3.08;;;;;;;;;;4987497;28;20465;-72
2021/08/16 00:31:25;;;;;;;6.85;3.70;;;;;;;;;;4982225;28;20058;-72
2021/08/16 00:33:51;;;;;;;6.63;3.88;;;;;;;;;;4977300;28;20406;-72
2021/08/16 00:36:17;;;;;;;6.05;3.38;;;;;;;;;;4983335;28;20027;-71
2021/08/16 00:38:43;;;;;;;7.53;3.80;;;;;;;;;;4988112;28;20130;-72
2021/08/16 00:41:09;;;;;;;6.30;3.33;;;;;;;;;;4979141;28;20034;-72
2021/08/16 00:43:36;;;;;;;7.53;3.88;;;;;;;;;;4986072;28;20504;-72
2021/08/16 00:46:02;;;;;;;6.47;3.75;;;;;;;;;;4983008;28;20054;-72
2021/08/16 00:48:28;;;;;;;7.28;3.85;;;;;;;;;;4984696;28;20072;-72
2021/08/16 00:50:54;;;;;;;7.53;3.83;;;;;;;;;;4982019;28;20049;-72
2021/08/16 00:53:19;;;;;;;4.13;3.30;;;;;;;;;;4993858;28;20483;-72
2021/08/16 00:55:45;;;;;;;6.93;4.00;;;;;;;;;;4975560;28;20490;-72
2021/08/16 00:58:11;;;;;;;6.13;3.60;;;;;;;;;;4985195;28;20022;-72
2021/08/16 01:00:40;;;;;;;6.45;3.83;;;;;;;;;;4975674;28;20065;-71
2021/08/16 01:03:06;;;;;;;6.05;3.95;;;;;;;;;;4988732;28;20026;-71
2021/08/16 01:05:32;;;;;;;10.10;3.78;;;;;;;;;;4985737;28;20041;-72
2021/08/16 01:07:58;;;;;;;8.95;3.63;;;;;;;;;;4987608;28;20035;-72
2021/08/16 01:10:29;;;;;;;6.68;4.00;;;;;;;;;;4975230;28;20091;-72
2021/08/16 01:12:55;;;;;;;6.68;3.70;;;;;;;;;;4975764;28;20023;-72
2021/08/16 01:15:21;;;;;;;5.57;3.50;;;;;;;;;;4973085;28;20034;-72
2021/08/16 01:17:47;;;;;;;7.32;4.43;;;;;;;;;;4975742;28;20106;-71
2021/08/16 01:20:15;;;;;;;7.00;3.80;;;;;;;;;;4976138;28;20085;-72
2021/08/16 01:22:41;;;;;;;5.85;3.63;;;;;;;;;;4973814;28;20253;-72
2021/08/16 01:25:08;;;;;;;8.35;3.53;;;;;;;;;;4970590;28;20501;-72
2021/08/16 01:27:34;;;;;;;6.28;3.15;;;;;;;;;;4982684;28;20077;-72
2021/08/16 01:30:01;;;;;;;5.88;3.50;;;;;;;;;;4970352;28;20058;-73
2021/08/16 01:32:27;;;;;;;7.68;3.78;;;;;;;;;;4974556;28;20022;-72
2021/08/16 01:34:53;;;;;;;5.28;2.95;;;;;;;;;;4975300;28;20522;-71
2021/08/16 01:37:19;;;;;;;5.40;3.17;;;;;;;;;;4986266;28;20560;-71
2021/08/16 01:39:45;;;;;;;5.85;3.47;;;;;;;;;;4984282;28;20105;-72
2021/08/16 01:42:10;;;;;;;5.20;3.40;;;;;;;;;;4983474;28;20732;-72
2021/08/16 01:44:36;;;;;;;5.47;3.67;;;;;;;;;;4969579;28;20027;-72
2021/08/16 01:47:02;;;;;;;6.10;3.33;;;;;;;;;;4974308;28;20445;-74
2021/08/16 01:49:28;;;;;;;5.43;3.08;;;;;;;;;;4985594;28;20022;-73
2021/08/16 01:51:54;;;;;;;7.85;3.35;;;;;;;;;;4994509;28;20114;-73
2021/08/16 01:54:20;;;;;;;5.53;3.35;;;;;;;;;;4986273;28;20038;-73
2021/08/16 01:56:46;;;;;;;5.38;3.25;;;;;;;;;;4972890;28;20027;-73
2021/08/16 01:59:12;;;;;;;6.18;3.50;;;;;;;;;;4983429;28;20027;-73
2021/08/16 02:01:38;;;;;;;4.53;2.95;;;;;;;;;;4979595;28;20026;-73
2021/08/16 02:04:04;;;;;;;5.80;3.33;;;;;;;;;;4968065;28;20465;-73
2021/08/16 02:06:30;;;;;;;9.18;3.40;;;;;;;;;;4981546;28;20448;-72
2021/08/16 02:08:56;;;;;;;4.68;3.22;;;;;;;;;;4973669;28;20050;-73
2021/08/16 02:11:24;;;;;;;7.10;3.42;;;;;;;;;;4987126;28;20053;-73
2021/08/16 02:13:49;;;;;;;5.63;3.30;;;;;;;;;;4982941;28;20027;-72
2021/08/16 02:16:15;;;;;;;7.18;3.40;;;;;;;;;;4976495;28;20114;-73
2021/08/16 02:18:41;;;;;;;4.93;3.22;;;;;;;;;;4976598;28;20059;-73
2021/08/16 02:21:07;;;;;;;4.78;2.95;;;;;;;;;;4980840;28;20577;-72
2021/08/16 02:23:33;;;;;;;4.78;3.08;;;;;;;;;;4972389;28;20030;-73
2021/08/16 02:25:59;;;;;;;5.53;3.08;;;;;;;;;;4973282;28;20092;-73
2021/08/16 02:28:25;;;;;;;3.72;2.80;;;;;;;;;;4979155;28;20395;-72
2021/08/16 02:30:51;;;;;;;5.25;3.42;;;;;;;;;;4985326;28;20085;-73
2021/08/16 02:33:17;;;;;;;5.13;2.90;;;;;;;;;;4969113;28;20443;-72
2021/08/16 02:35:43;;;;;;;4.28;3.10;;;;;;;;;;4978247;28;20027;-73
2021/08/16 02:38:10;;;;;;;4.35;3.20;;;;;;;;;;4968626;28;20130;-73
2021/08/16 02:40:37;;;;;;;5.07;2.92;;;;;;;;;;4982750;28;20100;-73
2021/08/16 02:43:03;;;;;;;4.82;2.83;;;;;;;;;;4979509;28;20105;-73
2021/08/16 02:45:29;;;;;;;5.00;2.70;;;;;;;;;;4979079;28;20108;-72
2021/08/16 02:47:55;;;;;;;8.68;3.50;;;;;;;;;;4987696;28;20045;-73
2021/08/16 02:50:21;;;;;;;9.73;3.30;;;;;;;;;;4989157;28;20508;-73
2021/08/16 02:52:47;;;;;;;5.75;3.15;;;;;;;;;;4996582;28;20030;-73
2021/08/16 02:55:13;;;;;;;7.10;3.33;;;;;;;;;;4981373;28;20023;-73
2021/08/16 02:57:39;;;;;;;7.38;3.35;;;;;;;;;;4988938;28;20060;-73
2021/08/16 03:00:06;;;;;;;5.75;2.90;;;;;;;;;;4985014;28;20491;-73
2021/08/16 03:02:32;;;;;;;5.45;3.30;;;;;;;;;;4981575;28;20046;-72
2021/08/16 03:04:58;;;;;;;5.15;3.33;;;;;;;;;;4984225;28;20522;-73
2021/08/16 03:07:24;;;;;;;5.40;2.85;;;;;;;;;;4983566;28;20051;-73
2021/08/16 03:09:49;;;;;;;10.18;3.03;;;;;;;;;;4980293;28;20050;-73
2021/08/16 03:12:16;;;;;;;4.35;3.15;;;;;;;;;;4975284;28;20396;-73
2021/08/16 03:14:42;;;;;;;7.03;3.65;;;;;;;;;;4974607;28;20034;-73
2021/08/16 03:17:08;;;;;;;6.20;3.33;;;;;;;;;;4978313;28;20521;-73
2021/08/16 03:19:34;;;;;;;5.43;3.30;;;;;;;;;;4989243;28;20041;-73
2021/08/16 03:22:00;;;;;;;5.97;3.05;;;;;;;;;;4983757;28;20023;-73
2021/08/16 03:24:26;;;;;;;5.97;3.17;;;;;;;;;;4979266;28;20285;-73
2021/08/16 03:26:52;;;;;;;3.65;2.88;;;;;;;;;;4983335;28;20018;-73
2021/08/16 03:29:18;;;;;;;4.97;2.97;;;;;;;;;;4989665;28;20054;-73
2021/08/16 03:31:44;;;;;;;6.22;3.78;;;;;;;;;;4983091;28;20080;-72
2021/08/16 03:34:11;;;;;;;10.35;3.58;;;;;;;;;;4982041;28;20039;-73
2021/08/16 03:36:36;;;;;;;7.93;3.40;;;;;;;;;;4980761;28;20489;-73
2021/08/16 03:39:03;;;;;;;7.63;3.28;;;;;;;;;;4976912;28;20081;-73
2021/08/16 03:41:29;;;;;;;6.78;3.28;;;;;;;;;;4983426;28;20098;-72
2021/08/16 03:43:55;;;;;;;6.60;3.35;;;;;;;;;;4990545;28;20030;-73
2021/08/16 03:46:21;;;;;;;5.88;3.30;;;;;;;;;;4986129;28;20122;-73
2021/08/16 03:48:47;;;;;;;4.65;2.90;;;;;;;;;;4988922;28;20477;-73
2021/08/16 03:51:13;;;;;;;6.13;2.78;;;;;;;;;;4993933;28;20026;-73
2021/08/16 03:53:39;;;;;;;5.28;2.92;;;;;;;;;;4979709;28;20379;-73
2021/08/16 03:56:06;;;;;;;5.47;2.83;;;;;;;;;;4982459;28;20732;-73
2021/08/16 03:58:32;;;;;;;4.53;2.85;;;;;;;;;;4979911;28;20042;-73
2021/08/16 04:00:58;;;;;;;7.78;3.20;;;;;;;;;;4980461;28;20042;-73
2021/08/16 04:03:24;;;;;;;9.75;3.17;;;;;;;;;;4972669;28;20037;-72
2021/08/16 04:05:50;;;;;;;4.70;2.60;;;;;;;;;;4982830;28;20614;-73
2021/08/16 04:08:16;;;;;;;10.00;2.88;;;;;;;;;;4987996;28;20049;-73
2021/08/16 04:10:42;;;;;;;3.33;2.42;;;;;;;;;;4980620;28;20051;-73
2021/08/16 04:13:08;;;;;;;5.88;3.15;;;;;;;;;;4981267;28;20030;-73
2021/08/16 04:15:34;;;;;;;4.30;2.80;;;;;;;;;;4972858;28;20038;-73
2021/08/16 04:18:00;;;;;;;4.93;3.08;;;;;;;;;;4975478;28;20045;-72
2021/08/16 04:20:25;;;;;;;5.57;3.55;;;;;;;;;;4986076;28;20033;-73
2021/08/16 04:22:51;;;;;;;5.40;2.90;;;;;;;;;;4986133;28;20397;-72
2021/08/16 04:25:18;;;;;;;6.70;2.97;;;;;;;;;;4988090;28;20114;-73
2021/08/16 04:27:45;;;;;;;5.90;2.88;;;;;;;;;;4984010;28;20019;-73
2021/08/16 04:30:12;;;;;;;7.72;3.00;;;;;;;;;;4985432;28;20058;-73
2021/08/16 04:32:38;;;;;;;5.22;2.30;;;;;;;;;;4986197;28;20034;-73
2021/08/16 04:35:04;;;;;;;5.43;3.05;;;;;;;;;;4981895;28;20039;-73
2021/08/16 04:37:34;;;;;;;10.95;3.50;;;;;;;;;;4980254;28;20034;-73
2021/08/16 04:40:00;;;;;;;4.10;2.60;;;;;;;;;;4974781;28;20458;-73
2021/08/16 04:42:26;;;;;;;7.95;3.22;;;;;;;;;;4984557;28;20121;-72
2021/08/16 04:44:52;;;;;;;5.78;2.65;;;;;;;;;;4988682;28;20444;-72
2021/08/16 04:47:17;;;;;;;5.28;3.00;;;;;;;;;;4980747;28;20077;-72
2021/08/16 04:49:43;;;;;;;5.18;2.88;;;;;;;;;;4985414;28;20380;-72
2021/08/16 04:52:09;;;;;;;3.72;2.58;;;;;;;;;;4986550;28;20114;-72
2021/08/16 04:54:35;;;;;;;6.88;3.00;;;;;;;;;;4984157;28;20037;-72
2021/08/16 04:57:01;;;;;;;6.85;3.20;;;;;;;;;;4980694;28;20034;-72
2021/08/16 04:59:27;;;;;;;6.30;3.42;;;;;;;;;;4982974;28;20022;-72
2021/08/16 05:01:53;;;;;;;3.85;2.65;;;;;;;;;;4982213;28;20613;-72
2021/08/16 05:04:19;;;;;;;4.28;2.67;;;;;;;;;;4986362;28;20442;-70
2021/08/16 05:06:46;;;;;;;5.60;3.03;;;;;;;;;;4977204;28;20055;-70
2021/08/16 05:09:12;;;;;;;4.07;2.55;;;;;;;;;;4986641;28;20022;-70
2021/08/16 05:11:38;;;;;;;5.72;2.88;;;;;;;;;;4986987;28;20072;-70
2021/08/16 05:14:04;;;;;;;3.88;2.67;;;;;;;;;;4988155;28;20038;-70
2021/08/16 05:16:30;;;;;;;5.38;2.95;;;;;;;;;;4986287;28;20026;-70
2021/08/16 05:18:56;;;;;;;4.97;3.22;;;;;;;;;;4983368;28;20389;-70
2021/08/16 05:21:22;;;;;;;7.40;3.33;;;;;;;;;;4977570;28;20417;-69
2021/08/16 05:23:49;;;;;;;6.13;3.17;;;;;;;;;;4980095;28;20114;-70
2021/08/16 05:26:15;;;;;;;9.88;2.65;;;;;;;;;;4969229;28;20049;-70
2021/08/16 05:28:53;;;;;;;8.00;2.90;;;;;;;;;;4985682;28;20021;-70
2021/08/16 05:31:28;;;;;;;5.40;2.85;;;;;;;;;;4980202;28;20026;-70
2021/08/16 05:33:54;;;;;;;8.60;3.40;;;;;;;;;;4978894;28;20038;-71
2021/08/16 05:36:20;;;;;;;7.03;3.10;;;;;;;;;;4974048;28;20038;-71
2021/08/16 05:38:46;;;;;;;5.15;3.08;;;;;;;;;;4978823;28;20127;-71
2021/08/16 05:41:12;;;;;;;5.20;3.28;;;;;;;;;;4970135;28;20034;-71
2021/08/16 05:43:38;;;;;;;6.68;2.85;;;;;;;;;;4979124;28;20461;-71
2021/08/16 05:46:04;;;;;;;10.90;3.65;;;;;;;;;;4987100;28;20034;-70
2021/08/16 05:48:30;;;;;;;3.97;2.80;;;;;;;;;;4976874;28;20031;-70
2021/08/16 05:50:56;;;;;;;4.35;2.67;;;;;;;;;;4985977;28;20496;-70
2021/08/16 05:53:22;;;;;;;4.60;2.50;;;;;;;;;;4983368;28;20022;-69
2021/08/16 05:55:48;;;;;;;5.18;2.85;;;;;;;;;;4973200;28;20428;-70
2021/08/16 05:58:14;;;;;;;4.40;2.40;;;;;;;;;;4980272;28;20550;-70
2021/08/16 06:00:40;;;;;;;5.93;2.80;;;;;;;;;;4992644;28;20038;-70
2021/08/16 06:03:06;;;;;;;5.60;2.85;;;;;;;;;;4994901;28;20025;-70
2021/08/16 06:05:32;;;;;;;3.97;2.78;;;;;;;;;;4992100;28;20175;-70
2021/08/16 06:07:57;;;;;;;5.45;3.00;;;;;;;;;;4994062;28;20500;-70
2021/08/16 06:10:23;;;;;;;7.05;2.85;;;;;;;;;;4994881;28;20582;-70
2021/08/16 06:12:49;;;;;;;6.00;3.03;;;;;;;;;;4995400;28;20038;-70
2021/08/16 06:15:15;;;;;;;5.53;3.03;;;;;;;;;;4995965;28;20038;-70
2021/08/16 06:17:41;;;;;;;4.00;2.90;;;;;;;;;;4996138;28;20022;-70
2021/08/16 06:20:08;;;;;;;4.68;2.88;;;;;;;;;;4996029;28;20065;-70
2021/08/16 06:22:34;;;;;;;7.57;3.03;;;;;;;;;;4990283;28;20029;-70
2021/08/16 06:25:00;;;;;;;9.43;2.83;;;;;;;;;;4984862;28;20034;-71
2021/08/16 06:27:26;;;;;;;4.97;2.85;;;;;;;;;;4987454;28;20058;-73
2021/08/16 06:29:52;;;;;;;3.97;2.70;;;;;;;;;;4985932;28;20153;-70
2021/08/16 06:32:18;;;;;;;6.78;3.03;;;;;;;;;;4983781;28;20034;-71
2021/08/16 06:34:44;;;;;;;3.85;2.88;;;;;;;;;;4994784;28;20072;-71
2021/08/16 06:37:10;;;;;;;11.30;3.03;;;;;;;;;;4997561;28;20525;-71
2021/08/16 06:39:36;;;;;;;7.07;3.40;;;;;;;;;;4998105;28;20038;-71
2021/08/16 06:42:02;;;;;;;5.05;3.03;;;;;;;;;;4999314;28;20060;-71
2021/08/16 06:44:28;;;;;;;8.40;3.28;;;;;;;;;;4997883;28;20583;-71
2021/08/16 06:46:55;;;;;;;5.97;3.08;;;;;;;;;;4998608;28;20398;-71
2021/08/16 06:49:21;;;;;;;6.90;3.45;;;;;;;;;;4987133;28;20031;-69
2021/08/16 06:51:47;;;;;;;3.75;2.30;;;;;;;;;;4992417;28;20026;-72
2021/08/16 06:54:13;;;;;;;3.72;2.42;;;;;;;;;;4988584;28;20038;-72
2021/08/16 06:56:39;;;;;;;5.95;2.90;;;;;;;;;;4980198;28;20042;-72
2021/08/16 06:59:05;;;;;;;8.38;3.00;;;;;;;;;;4988041;28;20212;-72
2021/08/16 07:01:31;;;;;;;7.55;2.67;;;;;;;;;;4985089;28;20041;-72
2021/08/16 07:03:57;;;;;;;8.30;3.00;;;;;;;;;;4976410;28;20022;-72
2021/08/16 07:06:24;;;;;;;6.70;2.55;;;;;;;;;;4971441;28;20552;-72
2021/08/16 07:08:50;;;;;;;5.82;3.03;;;;;;;;;;4971540;28;20031;-72
2021/08/16 07:11:16;;;;;;;7.10;3.08;;;;;;;;;;4971383;28;20075;-72
2021/08/16 07:13:42;;;;;;;6.38;2.63;;;;;;;;;;4971465;28;20050;-72
2021/08/16 07:16:08;;;;;;;7.68;2.67;;;;;;;;;;4977984;28;20472;-72
2021/08/16 07:18:35;;;;;;;3.85;2.60;;;;;;;;;;4973626;28;20031;-72
2021/08/16 07:21:01;;;;;;;5.40;2.97;;;;;;;;;;4971261;28;20054;-72
2021/08/16 07:23:27;;;;;;;6.25;3.20;;;;;;;;;;4971270;28;20484;-71
2021/08/16 07:25:53;;;;;;;6.35;3.00;;;;;;;;;;4971237;28;20118;-72
2021/08/16 07:28:19;;;;;;;5.28;2.40;;;;;;;;;;4978506;28;20050;-72
2021/08/16 07:30:45;;;;;;;5.30;2.78;;;;;;;;;;4971853;28;20420;-72
2021/08/16 07:33:11;;;;;;;4.20;2.58;;;;;;;;;;4974682;28;20026;-72
2021/08/16 07:35:37;;;;;;;6.43;2.67;;;;;;;;;;4985854;28;20022;-72
2021/08/16 07:38:03;;;;;;;6.50;2.72;;;;;;;;;;4990497;28;20432;-72
2021/08/16 07:40:29;;;;;;;8.18;3.00;;;;;;;;;;4990583;28;20038;-72
2021/08/16 07:42:55;;;;;;;4.50;2.90;;;;;;;;;;4979078;28;20077;-72
2021/08/16 07:45:21;;;;;;;6.75;3.20;;;;;;;;;;4971612;28;20022;-72
2021/08/16 07:47:47;;;;;;;4.05;2.70;;;;;;;;;;4970869;28;20137;-72
2021/08/16 07:50:13;;;;;;;8.20;2.60;;;;;;;;;;4974472;28;20465;-72
2021/08/16 07:52:41;;;;;;;4.18;2.70;;;;;;;;;;4992786;28;20023;-72
2021/08/16 07:55:08;;;;;;;5.43;2.55;;;;;;;;;;4970627;28;20387;-72
2021/08/16 07:57:34;;;;;;;3.95;2.65;;;;;;;;;;4973255;28;20036;-72
2021/08/16 08:00:00;;;;;;;6.60;2.90;;;;;;;;;;4985034;28;20227;-72
2021/08/16 08:02:26;;;;;;;5.90;3.25;;;;;;;;;;4983776;28;20082;-72
2021/08/16 08:04:52;;;;;;;5.85;3.20;;;;;;;;;;4970986;28;20023;-72
2021/08/16 08:07:19;;;;;;;6.35;3.15;;;;;;;;;;4975383;28;20038;-72
2021/08/16 08:09:45;;;;;;;9.27;3.60;;;;;;;;;;4986425;28;20043;-72
2021/08/16 08:12:10;;;;;;;9.18;3.20;;;;;;;;;;4970392;28;20037;-72
2021/08/16 08:14:36;;;;;;;5.07;3.10;;;;;;;;;;4970542;28;20023;-72
2021/08/16 08:17:02;;;;;;;4.63;3.08;;;;;;;;;;4970155;28;20053;-72
2021/08/16 08:19:28;;;;;;;6.32;3.20;;;;;;;;;;4970326;28;20110;-72
2021/08/16 08:21:54;;;;;;;8.93;3.47;;;;;;;;;;4972203;28;20023;-72
2021/08/16 08:24:20;;;;;;;9.32;3.60;;;;;;;;;;4979273;28;20030;-72
2021/08/16 08:26:46;;;;;;;14.60;4.60;;;;;;;;;;4983497;28;20026;-72
2021/08/16 08:29:12;;;;;;;6.38;3.38;;;;;;;;;;4977832;28;20070;-72
2021/08/16 08:31:41;;;;;;;5.35;3.47;;;;;;;;;;4983698;28;20492;-73
2021/08/16 08:34:07;;;;;;;7.00;3.63;;;;;;;;;;4976136;28;20022;-72
2021/08/16 08:36:33;;;;;;;6.95;3.83;;;;;;;;;;4971691;28;20715;-72
2021/08/16 08:38:59;;;;;;;9.30;4.40;;;;;;;;;;4987481;28;20030;-72
2021/08/16 08:41:27;;;;;;;12.10;4.03;;;;;;;;;;4975850;28;20080;-72
2021/08/16 08:43:53;;;;;;;5.60;4.25;;;;;;;;;;4984472;28;20187;-72
2021/08/16 08:46:20;;;;;;;8.10;3.80;;;;;;;;;;4969864;28;20030;-72
2021/08/16 08:48:46;;;;;;;5.28;3.60;;;;;;;;;;4984567;28;20026;-72
2021/08/16 08:51:12;;;;;;;7.75;4.22;;;;;;;;;;4995317;28;20049;-72
2021/08/16 08:53:38;;;;;;;6.97;3.92;;;;;;;;;;4987127;28;20030;-72
2021/08/16 08:56:04;;;;;;;7.80;4.20;;;;;;;;;;4986735;28;20030;-72
2021/08/16 08:58:30;;;;;;;5.47;4.20;;;;;;;;;;4984706;28;20477;-71
2021/08/16 09:00:56;;;;;;;5.40;3.78;;;;;;;;;;4975841;28;20042;-72
2021/08/16 09:03:22;;;;;;;7.07;4.30;;;;;;;;;;4980516;28;20034;-72
2021/08/16 09:05:48;;;;;;;7.80;3.95;;;;;;;;;;4998140;28;20371;-71
2021/08/16 09:08:21;;;;;;;7.22;3.85;;;;;;;;;;4990470;28;20041;-72
2021/08/16 09:10:47;;;;;;;6.55;3.97;;;;;;;;;;4972010;28;20422;-72
2021/08/16 09:13:23;;;;;;;7.25;3.80;;;;;;;;;;4978710;28;20560;-72
2021/08/16 09:15:49;;;;;;;7.68;3.75;;;;;;;;;;4978618;28;20125;-72
2021/08/16 09:18:27;;;;;;;4.68;3.60;;;;;;;;;;4987701;28;20117;-73
2021/08/16 09:20:53;;;;;;;5.47;3.63;;;;;;;;;;4975382;28;20478;-73
2021/08/16 09:23:21;;;;;;;6.97;3.78;;;;;;;;;;4997003;28;20362;-71
2021/08/16 09:25:54;;;;;;;5.00;3.58;;;;;;;;;;4987905;28;20489;-72
2021/08/16 09:28:27;;;;;;;4.97;3.20;;;;;;;;;;4977089;28;20055;-72
2021/08/16 09:30:53;;;;;;;4.72;3.15;;;;;;;;;;4987499;28;20030;-72
2021/08/16 09:33:20;;;;;;;6.13;3.40;;;;;;;;;;4976497;28;20505;-73
2021/08/16 09:35:56;;;;;;;10.38;3.30;;;;;;;;;;4975721;28;20097;-73
2021/08/16 09:38:35;;;;;;;6.88;2.92;;;;;;;;;;4982456;28;20026;-72
2021/08/16 09:41:01;;;;;;;6.90;2.85;;;;;;;;;;4974906;28;20039;-72
2021/08/16 09:43:28;;;;;;;5.70;3.45;;;;;;;;;;4983982;28;20022;-72
2021/08/16 09:45:54;;;;;;;4.30;2.88;;;;;;;;;;4976908;28;20035;-72
2021/08/16 09:48:21;;;;;;;8.57;2.90;;;;;;;;;;4986999;28;20274;-73
2021/08/16 09:50:48;;;;;;;6.45;2.97;;;;;;;;;;4989408;28;20028;-72
2021/08/16 09:53:19;;;;;;;3.80;2.90;;;;;;;;;;4986293;28;20475;-72
2021/08/16 09:55:46;;;;;;;7.75;2.83;;;;;;;;;;4971189;28;20031;-73
2021/08/16 09:58:13;;;;;;;4.53;3.03;;;;;;;;;;4976020;28;20427;-73
2021/08/16 10:00:40;;;;;;;5.95;2.65;;;;;;;;;;4981556;28;20117;-72
2021/08/16 10:03:07;;;;;;;9.63;2.97;;;;;;;;;;4982605;28;20026;-73
2021/08/16 10:05:36;;;;;;;5.07;3.30;;;;;;;;;;4982356;28;20023;-72
2021/08/16 10:08:04;;;;;;;4.75;2.85;;;;;;;;;;4983603;28;20076;-73
2021/08/16 10:10:30;;;;;;;9.70;2.83;;;;;;;;;;4983753;28;20039;-72
2021/08/16 10:12:56;;;;;;;6.32;3.20;;;;;;;;;;4973017;28;20023;-72
2021/08/16 10:15:22;;;;;;;4.80;3.47;;;;;;;;;;4975395;28;20027;-73
2021/08/16 10:17:49;;;;;;;8.25;2.63;;;;;;;;;;4979624;28;20461;-72
2021/08/16 10:20:16;;;;;;;7.22;3.00;;;;;;;;;;4977538;28;20516;-73
2021/08/16 10:22:42;;;;;;;8.57;3.03;;;;;;;;;;4972874;28;20027;-73
2021/08/16 10:25:12;;;;;;;7.45;2.97;;;;;;;;;;4986570;28;20050;-73
2021/08/16 10:27:38;;;;;;;4.80;2.88;;;;;;;;;;4988490;28;20022;-72
2021/08/16 10:30:09;;;;;;;4.47;2.53;;;;;;;;;;4984831;28;20493;-73
2021/08/16 10:32:34;;;;;;;6.75;2.88;;;;;;;;;;4983317;28;20019;-72
2021/08/16 10:35:07;;;;;;;4.25;3.03;;;;;;;;;;4982528;28;20044;-72
2021/08/16 10:37:40;;;;;;;5.32;3.28;;;;;;;;;;4985091;28;20478;-73
2021/08/16 10:40:15;;;;;;;7.20;3.03;;;;;;;;;;4975229;28;20038;-73
2021/08/16 10:42:41;;;;;;;8.40;3.53;;;;;;;;;;4980621;28;20477;-73
2021/08/16 10:45:09;;;;;;;7.10;2.70;;;;;;;;;;4980647;28;20158;-72
2021/08/16 10:47:35;;;;;;;4.15;3.00;;;;;;;;;;4973811;28;20455;-72
2021/08/16 10:50:08;;;;;;;5.80;3.03;;;;;;;;;;4980925;28;20117;-73
2021/08/16 10:52:36;;;;;;;6.90;2.47;;;;;;;;;;4994969;28;20109;-73
2021/08/16 10:55:24;;;;;;;3.40;2.40;;;;;;;;;;4981542;28;20030;-73
2021/08/16 10:57:50;;;;;;;4.75;3.05;;;;;;;;;;4988409;28;20034;-73
2021/08/16 11:00:16;;;;;;;3.53;2.40;;;;;;;;;;4988222;28;20030;-72
2021/08/16 11:02:42;;;;;;;4.25;2.40;;;;;;;;;;4971960;28;20106;-73
2021/08/16 11:05:09;;;;;;;4.55;2.60;;;;;;;;;;4984742;28;20525;-72
2021/08/16 11:07:35;;;;;;;2.95;2.22;;;;;;;;;;4978852;28;20113;-73
2021/08/16 11:10:03;;;;;;;3.70;2.40;;;;;;;;;;4974861;28;20113;-73
2021/08/16 11:12:32;;;;;;;6.78;2.85;;;;;;;;;;4973611;28;20135;-73
2021/08/16 11:14:58;;;;;;;5.03;2.33;;;;;;;;;;4982647;28;20581;-72
2021/08/16 11:17:31;;;;;;;4.25;2.17;;;;;;;;;;4981729;28;20102;-73
2021/08/16 11:20:07;;;;;;;4.50;2.72;;;;;;;;;;4982863;28;20031;-72
2021/08/16 11:22:33;;;;;;;4.70;2.47;;;;;;;;;;4971398;28;20384;-72
2021/08/16 11:25:06;;;;;;;3.65;2.40;;;;;;;;;;4975860;28;20030;-73
2021/08/16 11:27:32;;;;;;;4.03;2.40;;;;;;;;;;4986202;28;20283;-73
2021/08/16 11:30:00;;;;;;;6.95;2.00;;;;;;;;;;4975171;28;20256;-73
2021/08/16 11:32:28;;;;;;;4.35;2.20;;;;;;;;;;4977695;28;20034;-73
2021/08/16 11:34:55;;;;;;;3.53;2.40;;;;;;;;;;4984065;28;20425;-73
2021/08/16 11:37:21;;;;;;;6.07;2.25;;;;;;;;;;4984349;28;20034;-72
2021/08/16 11:39:48;;;;;;;4.03;2.10;;;;;;;;;;4990617;28;20449;-73
2021/08/16 11:42:14;;;;;;;4.80;2.00;;;;;;;;;;4983526;28;20034;-73
2021/08/16 11:44:40;;;;;;;5.05;2.70;;;;;;;;;;4971072;28;20038;-74
2021/08/16 11:47:06;;;;;;;5.32;2.63;;;;;;;;;;4972762;28;20026;-73
2021/08/16 11:49:33;;;;;;;7.38;2.58;;;;;;;;;;4979055;28;20035;-73
2021/08/16 11:51:59;;;;;;;3.50;2.53;;;;;;;;;;4997929;28;20056;-73
2021/08/16 11:54:28;;;;;;;4.55;2.35;;;;;;;;;;4970747;28;20490;-72
2021/08/16 11:56:56;;;;;;;5.35;2.30;;;;;;;;;;4971511;28;20027;-73
2021/08/16 11:59:22;;;;;;;6.60;2.50;;;;;;;;;;4985952;28;20642;-73
2021/08/16 12:01:48;;;;;;;6.97;2.40;;;;;;;;;;4977097;28;20027;-73
2021/08/16 12:04:14;;;;;;;3.53;2.33;;;;;;;;;;4981928;28;20421;-72
2021/08/16 12:06:40;;;;;;;3.47;2.00;;;;;;;;;;4973060;28;20022;-74
2021/08/16 12:09:07;;;;;;;5.50;2.40;;;;;;;;;;4985437;28;20476;-73
2021/08/16 12:11:36;;;;;;;4.05;2.53;;;;;;;;;;4973714;28;20050;-73
2021/08/16 12:14:05;;;;;;;7.78;2.63;;;;;;;;;;4978728;28;20027;-73
2021/08/16 12:16:31;;;;;;;3.47;2.25;;;;;;;;;;4970212;28;20030;-73
2021/08/16 12:18:58;;;;;;;2.83;2.35;;;;;;;;;;4970407;28;20105;-73
2021/08/16 12:21:24;;;;;;;4.30;2.35;;;;;;;;;;4970208;28;20527;-73
2021/08/16 12:24:05;;;;;;;2.88;2.20;;;;;;;;;;4980467;28;20126;-73
2021/08/16 12:26:36;;;;;;;5.05;2.30;;;;;;;;;;4979887;28;20026;-73
2021/08/16 12:29:02;;;;;;;3.15;2.28;;;;;;;;;;4970086;28;20393;-72
2021/08/16 12:31:30;;;;;;;5.70;1.95;;;;;;;;;;4984080;28;20505;-73
2021/08/16 12:34:04;;;;;;;5.40;2.13;;;;;;;;;;4987525;28;20457;-73
2021/08/16 12:36:36;;;;;;;5.13;1.95;;;;;;;;;;4971767;28;20069;-73
2021/08/16 12:39:08;;;;;;;6.00;2.20;;;;;;;;;;4971781;28;20030;-74
2021/08/16 12:41:35;;;;;;;3.30;1.88;;;;;;;;;;4982650;28;20022;-75
2021/08/16 12:44:01;;;;;;;6.25;2.70;;;;;;;;;;4982687;28;20034;-74
2021/08/16 12:46:29;;;;;;;3.10;2.10;;;;;;;;;;4983329;28;20124;-75
2021/08/16 12:48:56;;;;;;;7.65;2.28;;;;;;;;;;4983246;28;20033;-74
2021/08/16 12:51:22;;;;;;;4.07;2.30;;;;;;;;;;4990660;28;20019;-75
2021/08/16 12:53:48;;;;;;;4.18;2.35;;;;;;;;;;4978600;28;20042;-74
2021/08/16 12:56:14;;;;;;;7.10;2.13;;;;;;;;;;4985085;28;20573;-74
2021/08/16 12:58:40;;;;;;;7.05;2.28;;;;;;;;;;4983600;28;20130;-74
2021/08/16 13:01:06;;;;;;;4.32;2.00;;;;;;;;;;4969781;28;20085;-74
2021/08/16 13:03:32;;;;;;;3.92;2.28;;;;;;;;;;4969223;28;20065;-72
2021/08/16 13:05:58;;;;;;;6.88;2.40;;;;;;;;;;4981449;28;20041;-73
2021/08/16 13:08:24;;;;;;;8.55;2.60;;;;;;;;;;4986916;28;20034;-72
2021/08/16 13:10:50;;;;;;;5.03;2.42;;;;;;;;;;4986980;28;20113;-73
2021/08/16 13:13:17;;;;;;;4.50;2.38;;;;;;;;;;4975255;28;20077;-73
2021/08/16 13:15:43;;;;;;;6.78;2.15;;;;;;;;;;4979460;28;20030;-73
2021/08/16 13:18:09;;;;;;;6.80;2.75;;;;;;;;;;4985034;28;20026;-73
2021/08/16 13:20:37;;;;;;;10.50;2.67;;;;;;;;;;4980159;28;20057;-74
2021/08/16 13:23:06;;;;;;;5.55;2.35;;;;;;;;;;4983867;28;20040;-73
2021/08/16 13:25:34;;;;;;;3.15;2.00;;;;;;;;;;4985551;28;20528;-73
2021/08/16 13:28:00;;;;;;;8.88;2.53;;;;;;;;;;4979267;28;20042;-73
2021/08/16 13:30:26;;;;;;;4.78;2.53;;;;;;;;;;4981996;28;20040;-73
2021/08/16 13:32:52;;;;;;;3.95;2.40;;;;;;;;;;4979041;28;20679;-72
2021/08/16 13:35:17;;;;;;;5.28;2.30;;;;;;;;;;4984909;28;20065;-73
2021/08/16 13:37:43;;;;;;;4.50;1.98;;;;;;;;;;4986558;28;20516;-73
2021/08/16 13:40:10;;;;;;;4.28;2.20;;;;;;;;;;4986011;28;20088;-75
2021/08/16 13:42:37;;;;;;;8.07;2.45;;;;;;;;;;4983591;28;20031;-73
2021/08/16 13:45:03;;;;;;;8.35;2.35;;;;;;;;;;4982017;28;20065;-72
2021/08/16 13:47:29;;;;;;;12.30;2.63;;;;;;;;;;4982025;28;20030;-72
2021/08/16 13:49:55;;;;;;;8.43;2.28;;;;;;;;;;4980735;28;20026;-72
2021/08/16 13:52:21;;;;;;;4.50;2.10;;;;;;;;;;4986704;28;20019;-73
2021/08/16 13:54:47;;;;;;;3.80;1.92;;;;;;;;;;4979079;28;20556;-74
2021/08/16 13:57:13;;;;;;;4.43;1.92;;;;;;;;;;4982237;28;20027;-73
2021/08/16 13:59:39;;;;;;;3.50;1.92;;;;;;;;;;4981628;28;20108;-73
2021/08/16 14:02:05;;;;;;;12.25;3.25;;;;;;;;;;4978845;28;20023;-73
2021/08/16 14:04:30;;;;;;;4.80;1.85;;;;;;;;;;4985317;28;20456;-73
2021/08/16 14:06:56;;;;;;;5.35;2.50;;;;;;;;;;4984844;28;20035;-75
2021/08/16 14:09:22;;;;;;;6.22;2.22;;;;;;;;;;4987028;28;20134;-76
2021/08/16 14:11:48;;;;;;;6.82;2.47;;;;;;;;;;4986172;28;20114;-76
2021/08/16 14:14:15;;;;;;;5.10;2.30;;;;;;;;;;4987290;28;20049;-78
2021/08/16 14:16:44;;;;;;;5.68;2.38;;;;;;;;;;4981544;28;20310;-76
2021/08/16 14:19:10;;;;;;;9.10;2.85;;;;;;;;;;4979737;28;20034;-77
2021/08/16 14:21:37;;;;;;;8.55;2.70;;;;;;;;;;4981329;28;20378;-77
2021/08/16 14:24:04;;;;;;;5.97;2.70;;;;;;;;;;4983172;28;20493;-77
2021/08/16 14:26:30;;;;;;;6.60;2.63;;;;;;;;;;4983399;28;20043;-78
2021/08/16 14:28:58;;;;;;;9.90;3.05;;;;;;;;;;4983332;28;20015;-78
2021/08/16 14:31:29;;;;;;;6.82;3.20;;;;;;;;;;4983688;28;20493;-77
2021/08/16 14:33:55;;;;;;;8.70;2.90;;;;;;;;;;4985142;28;20027;-77
2021/08/16 14:36:21;;;;;;;5.47;2.85;;;;;;;;;;4983451;28;20041;-77
2021/08/16 14:38:47;;;;;;;5.90;2.65;;;;;;;;;;4985339;28;20077;-77
2021/08/16 14:41:13;;;;;;;5.88;2.90;;;;;;;;;;4973145;28;20118;-76